Time;durP1;ratioP1;P1;durP2;ratioP2;P2;SDS_P1;SDS_P2;PMS_P1;PMS_P2;Temp;Humidity;BMP_temperature;BMP_pressure;BME280_temperature;BME280_humidity;BME280_pressure;Samples;Min_cycle;Max_cycle;Signal;HPM_P1;HPM_P2
2022/09/20 00:00:40;;;;;;;2.63;2.43;;;;;;;12.50;70.74;94922.81;5054471;28;20477;-85
2022/09/20 00:03:07;;;;;;;2.50;2.23;;;;;;;12.46;71.08;94916.19;5053526;28;20464;-86
2022/09/20 00:05:37;;;;;;;5.73;5.23;;;;;;;12.46;71.00;94921.44;5055805;28;20452;-86
2022/09/20 00:08:05;;;;;;;2.47;2.23;;;;;;;12.42;71.08;94918.22;5057353;28;20488;-86
2022/09/20 00:10:35;;;;;;;2.60;2.40;;;;;;;12.38;70.90;94927.38;5057304;28;20851;-87
2022/09/20 00:13:02;;;;;;;2.80;2.60;;;;;;;12.20;71.50;94918.53;5058355;28;20447;-85
2022/09/20 00:15:29;;;;;;;2.80;2.60;;;;;;;12.12;71.76;94913.13;5056692;28;20448;-87
2022/09/20 00:17:56;;;;;;;2.27;2.17;;;;;;;11.95;70.94;94907.59;5058104;28;20457;-87
2022/09/20 00:20:23;;;;;;;2.73;2.53;;;;;;;11.99;71.59;94927.41;5056185;28;20441;-86
2022/09/20 00:22:51;;;;;;;2.83;2.63;;;;;;;11.88;71.26;94918.81;5056999;28;20445;-87
2022/09/20 00:25:21;;;;;;;3.50;3.30;;;;;;;11.95;71.28;94927.81;5055978;28;20479;-88
2022/09/20 00:27:48;;;;;;;2.97;2.77;;;;;;;11.76;72.18;94929.41;5055525;28;20480;-87
2022/09/20 00:30:15;;;;;;;3.10;2.90;;;;;;;11.73;72.25;94929.69;5056086;28;20452;-87
2022/09/20 00:32:42;;;;;;;2.73;2.53;;;;;;;11.76;71.66;94928.59;5036890;28;20444;-88
2022/09/20 00:35:09;;;;;;;2.60;2.40;;;;;;;11.67;71.40;94926.78;5054938;28;20463;-87
2022/09/20 00:37:37;;;;;;;2.53;2.33;;;;;;;11.73;71.40;94923.59;5053870;28;20888;-86
2022/09/20 00:40:08;;;;;;;2.30;2.20;;;;;;;11.69;73.41;94928.31;5054521;28;20453;-86
2022/09/20 00:42:35;;;;;;;2.97;2.77;;;;;;;11.66;72.29;94930.38;5055408;28;20460;-87
2022/09/20 00:45:03;;;;;;;2.50;2.30;;;;;;;11.68;72.73;94934.53;5054590;28;20790;-87
2022/09/20 00:47:42;;;;;;;2.57;2.40;;;;;;;11.70;73.09;94926.50;5053506;28;20455;-86
2022/09/20 00:50:25;;;;;;;5.80;3.20;;;;;;;11.80;71.69;94935.25;5052872;28;20452;-87
2022/09/20 00:52:57;;;;;;;2.47;2.37;;;;;;;11.87;71.60;94943.47;5052764;28;20449;-86
2022/09/20 00:55:27;;;;;;;2.73;2.53;;;;;;;11.82;71.50;94943.00;5053008;28;20448;-87
2022/09/20 00:57:55;;;;;;;2.37;2.17;;;;;;;11.73;72.05;94945.47;5053521;28;20457;-87
2022/09/20 01:00:22;;;;;;;2.27;2.07;;;;;;;11.65;71.42;94931.34;5052484;28;20513;-86
2022/09/20 01:02:55;;;;;;;2.90;2.70;;;;;;;11.68;71.72;94929.28;5052799;28;20942;-87
2022/09/20 01:05:22;;;;;;;2.40;2.20;;;;;;;11.63;71.97;94918.34;5052373;28;20453;-87
2022/09/20 01:07:51;;;;;;;2.50;2.30;;;;;;;11.55;70.76;94918.16;5050486;28;20448;-85
2022/09/20 01:10:18;;;;;;;2.67;2.47;;;;;;;11.48;71.73;94917.03;5052768;28;20451;-86
2022/09/20 01:12:49;;;;;;;4.13;2.40;;;;;;;11.43;72.20;94916.63;5052367;28;20505;-87
2022/09/20 01:15:17;;;;;;;2.60;2.40;;;;;;;11.45;72.60;94915.53;5052488;28;20460;-86
2022/09/20 01:17:48;;;;;;;2.73;2.53;;;;;;;11.40;71.75;94916.91;5050603;28;20818;-86
2022/09/20 01:20:21;;;;;;;2.50;2.30;;;;;;;11.38;71.91;94919.66;5052980;28;20448;-87
2022/09/20 01:23:01;;;;;;;5.47;2.47;;;;;;;11.28;71.87;94924.06;5052749;28;20483;-86
2022/09/20 01:25:56;;;;;;;2.50;2.30;;;;;;;11.26;71.95;94919.88;5052685;28;20455;-87
2022/09/20 01:28:26;;;;;;;2.93;2.63;;;;;;;11.23;71.76;94914.91;5052496;28;20842;-87
2022/09/20 01:31:04;;;;;;;3.17;2.90;;;;;;;11.21;70.14;94912.41;5052956;28;20451;-87
2022/09/20 01:33:42;;;;;;;5.00;2.87;;;;;;;11.27;70.22;94914.50;5052394;28;20444;-85
2022/09/20 01:36:14;;;;;;;2.87;2.70;;;;;;;11.29;70.08;94914.38;5052490;28;20440;-87
2022/09/20 01:38:45;;;;;;;3.40;3.10;;;;;;;11.39;70.48;94916.06;5052466;28;20996;-88
2022/09/20 01:41:21;;;;;;;3.60;2.37;;;;;;;11.34;69.45;94901.69;5053069;28;20454;-86
2022/09/20 01:43:53;;;;;;;2.90;2.70;;;;;;;11.40;68.98;94920.34;5052805;28;20463;-88
2022/09/20 01:46:28;;;;;;;3.30;3.00;;;;;;;11.39;68.84;94925.75;5052459;28;20449;-87
2022/09/20 01:49:05;;;;;;;3.13;2.93;;;;;;;11.40;71.71;94922.16;5052195;28;20508;-87
2022/09/20 01:52:29;;;;;;;2.50;2.37;;;;;;;11.34;68.77;94933.19;5052401;28;20563;-87
2022/09/20 01:55:31;;;;;;;3.00;2.80;;;;;;;11.32;69.48;94932.50;5052469;28;20448;-86
2022/09/20 01:58:31;;;;;;;3.00;2.80;;;;;;;11.22;69.83;94934.25;5052349;28;20448;-87
2022/09/20 02:01:34;;;;;;;3.70;3.40;;;;;;;11.31;71.20;94930.84;5052476;28;20476;-87
2022/09/20 02:04:39;;;;;;;2.90;2.70;;;;;;;11.33;70.49;94919.25;4990500;28;20946;-87
2022/09/20 02:07:38;;;;;;;3.10;2.90;;;;;;;11.34;70.11;94923.53;4951856;29;20505;-86
2022/09/20 02:10:38;;;;;;;2.90;2.70;;;;;;;11.21;71.29;94916.81;4951260;29;20525;-86
2022/09/20 02:13:10;;;;;;;3.53;3.23;;;;;;;11.11;71.24;94911.56;4894755;29;20451;-88
2022/09/20 02:16:10;;;;;;;3.17;2.70;;;;;;;11.20;72.20;94907.28;4894948;29;20466;-86
2022/09/20 02:18:55;;;;;;;3.93;3.53;;;;;;;11.20;72.41;94909.91;4820791;29;20889;-87
2022/09/20 02:21:30;;;;;;;3.00;2.80;;;;;;;11.17;71.26;94914.47;4821058;29;20562;-86
2022/09/20 02:24:06;;;;;;;3.20;3.00;;;;;;;11.18;72.53;94908.25;4820647;29;20462;-87
2022/09/20 02:26:41;;;;;;;2.80;2.33;;;;;;;11.11;71.77;94906.31;4823475;29;20458;-87
2022/09/20 02:29:23;;;;;;;3.63;3.33;;;;;;;11.08;71.92;94901.31;4824427;29;20586;-86
2022/09/20 02:32:06;;;;;;;3.30;2.63;;;;;;;11.14;72.58;94909.50;4824151;29;20473;-86
2022/09/20 02:34:51;;;;;;;3.03;2.80;;;;;;;11.12;72.51;94911.41;4823984;29;20546;-85
2022/09/20 02:37:40;;;;;;;4.00;3.27;;;;;;;11.11;71.95;94912.38;4823708;29;20451;-86
2022/09/20 02:40:20;;;;;;;2.60;2.50;;;;;;;11.16;73.01;94918.06;4825191;29;20546;-87
2022/09/20 02:42:55;;;;;;;3.70;3.50;;;;;;;11.12;72.58;94913.22;4860885;29;20456;-87
2022/09/20 02:45:30;;;;;;;3.63;3.40;;;;;;;11.17;72.75;94919.72;4913362;29;20465;-86
2022/09/20 02:48:03;;;;;;;3.60;3.33;;;;;;;11.13;72.24;94914.88;4916562;29;20525;-86
2022/09/20 02:50:41;;;;;;;3.40;3.10;;;;;;;11.09;72.76;94916.94;4955366;28;21008;-86
2022/09/20 02:53:25;;;;;;;3.50;3.30;;;;;;;10.93;73.61;94913.13;4974417;28;20447;-87
2022/09/20 02:56:03;;;;;;;4.83;3.23;;;;;;;10.85;74.48;94916.41;5024983;28;20443;-87
2022/09/20 02:58:40;;;;;;;3.23;3.03;;;;;;;10.69;74.91;94900.28;5053350;28;20497;-87
2022/09/20 03:01:19;;;;;;;4.00;3.70;;;;;;;10.75;76.58;94923.41;5055128;28;20479;-86
2022/09/20 03:03:54;;;;;;;3.90;3.50;;;;;;;10.69;76.16;94931.78;5055562;28;20738;-86
2022/09/20 03:06:27;;;;;;;3.37;3.10;;;;;;;10.63;77.20;94925.28;5055253;28;20437;-87
2022/09/20 03:09:03;;;;;;;3.70;3.40;;;;;;;10.59;77.72;94920.41;5055029;28;20487;-87
2022/09/20 03:11:35;;;;;;;3.70;3.40;;;;;;;10.55;78.81;94935.59;5054946;28;20656;-85
2022/09/20 03:14:11;;;;;;;3.00;2.80;;;;;;;10.54;78.02;94929.50;5055313;28;20810;-86
2022/09/20 03:16:51;;;;;;;3.80;3.60;;;;;;;10.51;79.21;94934.19;5055325;28;20485;-87
2022/09/20 03:19:32;;;;;;;4.37;4.07;;;;;;;10.53;78.77;94935.72;5054881;28;20450;-86
2022/09/20 03:22:09;;;;;;;3.57;3.27;;;;;;;10.54;78.19;94940.00;5054597;28;20442;-86
2022/09/20 03:24:52;;;;;;;4.97;3.47;;;;;;;10.60;78.89;94945.69;5055216;28;20486;-86
2022/09/20 03:27:28;;;;;;;3.90;3.60;;;;;;;10.61;77.69;94957.84;5054788;28;20446;-86
2022/09/20 03:30:09;;;;;;;4.77;3.27;;;;;;;10.68;77.55;94946.69;5054528;28;20483;-86
2022/09/20 03:32:51;;;;;;;3.60;3.40;;;;;;;10.68;76.44;94957.19;5054645;28;20459;-86
2022/09/20 03:35:31;;;;;;;3.67;3.37;;;;;;;10.71;76.42;94961.38;5054621;28;20441;-87
2022/09/20 03:38:12;;;;;;;3.53;3.23;;;;;;;10.67;76.57;94946.84;5053877;28;20451;-86
2022/09/20 03:41:17;;;;;;;4.50;4.10;;;;;;;10.73;76.10;94949.78;5054252;28;20451;-87
2022/09/20 03:44:00;;;;;;;10.63;4.60;;;;;;;10.75;75.88;94949.66;4934812;29;20461;-87
2022/09/20 03:46:28;;;;;;;3.70;3.40;;;;;;;10.77;75.68;94950.38;4934673;29;21070;-86
2022/09/20 03:49:30;;;;;;;3.47;3.17;;;;;;;10.84;75.87;94957.59;4934590;29;20483;-86
2022/09/20 03:52:10;;;;;;;3.63;3.43;;;;;;;10.89;75.23;94954.56;4859520;29;20480;-86
2022/09/20 03:55:07;;;;;;;3.00;2.80;;;;;;;10.95;75.04;94953.19;4859264;29;20546;-86
2022/09/20 03:57:58;;;;;;;7.90;4.43;;;;;;;10.93;74.40;94948.09;4804473;29;20453;-84
2022/09/20 04:00:38;;;;;;;3.03;2.83;;;;;;;10.86;74.51;94960.06;4786422;30;20541;-85
2022/09/20 04:03:21;;;;;;;3.30;3.00;;;;;;;10.76;74.35;94946.91;4786456;30;20967;-86
2022/09/20 04:06:01;;;;;;;3.47;3.20;;;;;;;10.77;74.80;94953.81;4787216;30;21056;-86
2022/09/20 04:08:54;;;;;;;3.40;3.10;;;;;;;10.78;74.38;94960.72;4788318;29;20470;-87
2022/09/20 04:11:27;;;;;;;3.20;3.00;;;;;;;10.76;74.27;94954.78;4787843;30;20464;-86
2022/09/20 04:14:00;;;;;;;3.30;2.60;;;;;;;10.74;74.29;94969.00;4787833;30;20458;-86
2022/09/20 04:16:39;;;;;;;3.00;2.80;;;;;;;10.83;73.77;94981.34;4779694;30;20489;-85
2022/09/20 04:19:15;;;;;;;3.00;2.70;;;;;;;10.92;73.97;94975.31;4787416;30;20748;-86
2022/09/20 04:21:48;;;;;;;3.50;3.20;;;;;;;10.90;72.57;94971.97;4867669;29;20439;-87
2022/09/20 04:24:22;;;;;;;5.90;2.67;;;;;;;10.90;73.09;94979.84;4878722;29;20967;-86
2022/09/20 04:26:54;;;;;;;3.60;2.97;;;;;;;10.91;72.98;94983.31;4878981;29;20456;-88
2022/09/20 04:29:33;;;;;;;3.23;2.93;;;;;;;10.92;72.81;94980.56;4918042;29;20496;-87
2022/09/20 04:32:07;;;;;;;2.77;2.53;;;;;;;10.79;74.16;94966.81;4935726;29;20477;-87
2022/09/20 04:37:31;;;;;;;2.43;2.23;;;;;;;10.64;75.29;94987.28;5001662;28;20423;-87
2022/09/20 04:40:09;;;;;;;2.70;2.50;;;;;;;10.62;76.20;94988.38;5034899;28;20448;-85
2022/09/20 04:43:02;;;;;;;2.83;2.63;;;;;;;10.54;76.86;94989.84;5035066;28;20460;-84
2022/09/20 04:45:54;;;;;;;3.50;2.87;;;;;;;10.47;76.79;94993.97;5035276;28;20465;-86
2022/09/20 04:48:59;;;;;;;3.13;2.83;;;;;;;10.46;77.62;94997.53;5033585;28;20437;-86
2022/09/20 04:52:07;;;;;;;4.13;3.40;;;;;;;10.40;77.22;94995.41;5036738;28;20460;-86
2022/09/20 04:55:10;;;;;;;9.93;2.90;;;;;;;10.39;77.21;94996.34;4973848;28;20465;-87
2022/09/20 04:58:08;;;;;;;6.30;3.93;;;;;;;10.40;77.88;94995.41;4973823;28;20951;-86
2022/09/20 05:00:58;;;;;;;2.93;2.73;;;;;;;10.43;77.10;94989.94;4973148;28;20475;-86
2022/09/20 05:03:46;;;;;;;2.97;2.67;;;;;;;10.36;77.82;94988.75;4972985;28;20461;-86
2022/09/20 05:06:40;;;;;;;2.50;2.27;;;;;;;10.42;77.65;94993.50;4954249;28;20823;-86
2022/09/20 05:09:34;;;;;;;2.93;2.53;;;;;;;10.47;76.96;94998.38;4953500;29;20532;-83
2022/09/20 05:12:41;;;;;;;4.60;3.30;;;;;;;10.69;77.25;94997.41;4850889;29;20451;-84
2022/09/20 05:15:21;;;;;;;3.10;2.60;;;;;;;10.90;76.38;95008.72;4841336;29;20497;-85
2022/09/20 05:18:09;;;;;;;2.80;2.60;;;;;;;11.16;75.73;94996.84;4841428;29;20510;-86
2022/09/20 05:21:04;;;;;;;2.87;2.67;;;;;;;11.55;73.67;95006.69;4840871;29;20446;-85
2022/09/20 05:30:24;;;;;;;4.20;3.27;;;;;;;12.25;72.70;95009.25;4840187;29;20481;-87
2022/09/20 05:33:04;;;;;;;2.60;2.40;;;;;;;12.53;69.45;95006.75;4952227;29;20460;-85
2022/09/20 05:35:40;;;;;;;3.00;2.70;;;;;;;13.10;69.75;95005.03;4953452;29;20453;-85
2022/09/20 05:38:22;;;;;;;2.87;2.67;;;;;;;13.22;67.25;94998.63;4953088;29;20453;-84
2022/09/20 05:41:04;;;;;;;2.77;2.40;;;;;;;13.31;66.44;95008.31;4937285;29;20465;-85
2022/09/20 05:43:34;;;;;;;3.23;2.80;;;;;;;13.54;66.96;95017.50;4953545;29;20473;-86
2022/09/20 05:46:15;;;;;;;2.80;2.50;;;;;;;13.39;66.24;95003.16;4953432;29;20510;-87
2022/09/20 05:48:55;;;;;;;5.37;2.63;;;;;;;13.50;66.35;95012.69;4958044;28;20445;-84
2022/09/20 05:51:35;;;;;;;3.80;2.60;;;;;;;13.66;67.42;94998.88;4991820;28;20460;-83
2022/09/20 05:54:35;;;;;;;6.93;3.10;;;;;;;14.31;65.29;95007.53;5053255;28;20453;-83
2022/09/20 05:57:16;;;;;;;2.70;2.50;;;;;;;14.41;62.14;95011.75;5041905;28;21182;-84
2022/09/20 05:59:56;;;;;;;3.50;2.50;;;;;;;14.51;61.16;95004.63;5054179;28;20834;-85
2022/09/20 06:02:35;;;;;;;6.37;4.13;;;;;;;14.76;61.65;95008.31;5057368;28;20470;-83
2022/09/20 06:05:10;;;;;;;3.63;3.33;;;;;;;15.17;60.67;95011.25;5057060;28;20433;-85
2022/09/20 06:07:55;;;;;;;2.87;2.53;;;;;;;15.44;62.39;95008.44;5057241;28;20643;-84
2022/09/20 06:10:46;;;;;;;5.47;4.23;;;;;;;15.25;58.48;95021.03;5057283;28;20469;-85
2022/09/20 06:13:33;;;;;;;6.30;3.10;;;;;;;15.20;58.06;95016.22;5057618;28;20814;-85
2022/09/20 06:16:03;;;;;;;2.33;2.13;;;;;;;15.27;58.00;95001.41;5056444;28;20442;-84
2022/09/20 06:18:38;;;;;;;3.00;2.70;;;;;;;15.62;58.83;95012.88;5056487;28;20506;-84
2022/09/20 06:21:16;;;;;;;2.90;2.70;;;;;;;15.70;56.14;95007.63;5055511;28;20448;-85
2022/09/20 06:23:44;;;;;;;2.40;2.20;;;;;;;15.75;56.70;95013.25;5042219;28;20446;-85
2022/09/20 06:26:16;;;;;;;6.00;2.80;;;;;;;15.69;56.81;94995.38;5055442;28;20442;-84
2022/09/20 06:28:48;;;;;;;2.70;2.50;;;;;;;15.67;55.67;95013.25;5036760;28;20797;-84
2022/09/20 06:31:15;;;;;;;2.70;2.50;;;;;;;15.57;55.99;95017.75;5055251;28;20578;-84
2022/09/20 06:33:50;;;;;;;3.00;2.20;;;;;;;15.72;56.61;95009.13;5055764;28;20453;-84
2022/09/20 06:42:01;;;;;;;3.20;2.90;;;;;;;15.84;55.59;95004.38;5055214;28;20429;-85
2022/09/20 06:44:28;;;;;;;2.80;2.47;;;;;;;15.91;55.32;95008.06;5054987;28;20441;-85
2022/09/20 06:46:55;;;;;;;6.87;2.13;;;;;;;15.76;55.64;95007.81;5055291;28;20820;-84
2022/09/20 06:49:27;;;;;;;2.57;2.37;;;;;;;15.63;55.84;95003.97;5055232;28;20443;-86
2022/09/20 06:51:57;;;;;;;3.43;3.13;;;;;;;15.94;56.47;95010.38;5055606;28;20812;-84
2022/09/20 06:54:25;;;;;;;3.20;3.00;;;;;;;15.76;56.00;95014.91;5055037;28;20528;-84
2022/09/20 06:56:52;;;;;;;3.20;2.90;;;;;;;15.83;55.57;95021.22;5036205;28;20438;-85
2022/09/20 06:59:19;;;;;;;2.67;2.47;;;;;;;16.00;55.17;95012.38;5055184;28;20481;-84
2022/09/20 07:01:46;;;;;;;2.40;2.20;;;;;;;16.03;55.03;95020.00;5054882;28;20818;-85
2022/09/20 07:04:13;;;;;;;10.57;3.10;;;;;;;16.18;55.08;95016.72;5055125;28;20449;-86
2022/09/20 07:06:41;;;;;;;2.40;2.20;;;;;;;16.45;54.02;95012.97;5054729;28;20818;-84
2022/09/20 07:09:11;;;;;;;3.20;2.37;;;;;;;16.64;54.16;95018.81;5054989;28;20430;-85
2022/09/20 07:11:38;;;;;;;4.13;2.30;;;;;;;16.74;53.97;95023.97;5053936;28;20481;-85
2022/09/20 07:14:06;;;;;;;2.13;2.03;;;;;;;16.80;53.21;95025.16;5054445;28;20459;-85
2022/09/20 07:16:35;;;;;;;3.20;1.93;;;;;;;16.65;52.68;95033.72;5052541;28;20934;-84
2022/09/20 07:19:04;;;;;;;2.47;1.80;;;;;;;16.94;59.08;95021.84;5054777;28;20447;-85
2022/09/20 07:21:31;;;;;;;1.93;1.83;;;;;;;16.93;52.48;95028.16;5054493;28;20489;-85
2022/09/20 07:24:00;;;;;;;3.40;2.43;;;;;;;17.25;52.71;95029.94;5054563;28;20789;-84
2022/09/20 07:26:29;;;;;;;3.70;3.20;;;;;;;17.27;50.26;95020.81;5054642;28;20506;-85
2022/09/20 07:28:57;;;;;;;3.23;2.20;;;;;;;17.17;50.73;95020.19;5054695;28;20463;-85
2022/09/20 07:31:25;;;;;;;3.17;2.60;;;;;;;17.22;51.62;95012.56;5054129;28;20532;-86
2022/09/20 07:33:52;;;;;;;4.93;3.07;;;;;;;17.06;51.46;95027.63;5054399;28;20452;-85
2022/09/20 07:36:20;;;;;;;3.97;3.57;;;;;;;16.92;50.48;95022.00;5054051;28;20444;-85
2022/09/20 07:38:48;;;;;;;3.57;2.90;;;;;;;16.65;51.41;95025.78;5054041;28;20919;-85
2022/09/20 07:41:17;;;;;;;3.93;3.50;;;;;;;16.38;51.25;95018.09;5054767;28;20489;-85
2022/09/20 07:43:45;;;;;;;2.87;2.67;;;;;;;16.50;51.92;95016.81;5053901;28;20447;-85
2022/09/20 07:46:13;;;;;;;2.37;2.00;;;;;;;16.70;52.14;95033.25;5054072;28;20439;-84
2022/09/20 07:48:41;;;;;;;3.43;2.23;;;;;;;16.64;51.87;95018.81;5054050;28;20458;-84
2022/09/20 07:51:10;;;;;;;2.53;2.20;;;;;;;16.81;51.50;95024.19;5053908;28;20495;-85
2022/09/20 07:53:37;;;;;;;2.53;2.33;;;;;;;16.57;50.94;95023.13;5053801;28;20951;-84
2022/09/20 07:56:06;;;;;;;3.33;3.00;;;;;;;16.59;51.98;95025.59;5054332;28;20449;-84
2022/09/20 07:58:35;;;;;;;2.20;2.00;;;;;;;16.52;51.53;95022.78;5054268;28;20457;-84
2022/09/20 08:01:04;;;;;;;1.90;1.80;;;;;;;16.47;51.90;95033.00;5053915;28;20481;-84
2022/09/20 08:03:32;;;;;;;2.00;1.80;;;;;;;16.56;51.13;95024.13;5054352;28;20432;-85
2022/09/20 08:05:59;;;;;;;2.20;2.00;;;;;;;16.67;50.77;95005.25;5053671;28;20443;-83
2022/09/20 08:08:26;;;;;;;2.00;1.80;;;;;;;17.34;50.26;95019.16;5053559;28;20444;-84
2022/09/20 08:10:54;;;;;;;2.03;1.70;;;;;;;17.20;48.26;95014.53;5053455;28;21029;-85
2022/09/20 08:13:21;;;;;;;1.93;1.83;;;;;;;16.87;48.89;94999.66;5053886;28;20454;-85
2022/09/20 08:15:49;;;;;;;2.13;1.97;;;;;;;16.78;48.05;95005.97;5018748;28;20449;-84
2022/09/20 08:18:16;;;;;;;2.60;1.77;;;;;;;16.73;49.81;95006.44;5053570;28;20449;-84
2022/09/20 08:20:43;;;;;;;3.13;2.10;;;;;;;16.95;49.93;95008.44;5053514;28;20453;-85
2022/09/20 08:23:10;;;;;;;1.83;1.73;;;;;;;17.26;49.44;95021.00;5052857;28;20448;-85
2022/09/20 08:25:38;;;;;;;4.00;2.50;;;;;;;17.09;49.25;95014.91;5053794;28;20520;-84
2022/09/20 08:28:05;;;;;;;3.80;2.13;;;;;;;17.00;48.93;95019.34;5053081;28;20445;-84
2022/09/20 08:30:32;;;;;;;1.60;1.50;;;;;;;16.98;48.64;95012.56;5052999;28;20492;-85
2022/09/20 08:33:00;;;;;;;2.50;1.90;;;;;;;17.24;48.76;95002.59;5053353;28;20459;-85
2022/09/20 08:35:28;;;;;;;2.07;1.87;;;;;;;17.43;46.49;95005.91;5052914;28;20452;-85
2022/09/20 08:37:56;;;;;;;1.63;1.53;;;;;;;17.50;44.84;94990.94;5053043;28;21037;-84
2022/09/20 08:40:24;;;;;;;2.13;1.60;;;;;;;17.70;45.81;94999.41;5048907;28;20513;-84
2022/09/20 08:42:53;;;;;;;3.50;1.73;;;;;;;17.97;44.99;95008.75;5033844;28;20446;-84
2022/09/20 08:45:23;;;;;;;1.73;1.63;;;;;;;17.50;43.62;94980.34;5052850;28;20460;-83
2022/09/20 08:47:53;;;;;;;2.50;2.03;;;;;;;17.25;46.96;94988.34;5053190;28;20465;-84
2022/09/20 08:50:22;;;;;;;1.97;1.80;;;;;;;16.59;47.65;94999.09;5052252;28;20496;-85
2022/09/20 08:52:53;;;;;;;1.70;1.60;;;;;;;16.82;47.94;94991.38;5048042;28;20461;-84
2022/09/20 08:55:22;;;;;;;2.00;1.73;;;;;;;17.27;48.63;94991.66;5043831;28;20437;-85
2022/09/20 08:57:51;;;;;;;3.60;1.90;;;;;;;17.65;48.23;94990.09;5052556;28;20452;-84
2022/09/20 09:00:20;;;;;;;1.70;1.60;;;;;;;17.75;47.50;94986.44;5045281;28;20975;-84
2022/09/20 09:02:50;;;;;;;1.60;1.50;;;;;;;17.46;44.96;94979.84;5050466;28;20452;-85
2022/09/20 09:05:33;;;;;;;1.73;1.63;;;;;;;17.34;45.88;94983.84;5049079;28;20845;-84
2022/09/20 09:08:03;;;;;;;1.60;1.50;;;;;;;16.98;46.11;94965.69;5052154;28;20439;-85
2022/09/20 09:10:36;;;;;;;2.43;1.83;;;;;;;17.11;46.97;94964.34;5052788;28;20484;-85
2022/09/20 09:13:04;;;;;;;1.70;1.50;;;;;;;16.95;46.24;94962.53;5053074;28;20444;-85
2022/09/20 09:15:35;;;;;;;1.83;1.73;;;;;;;16.63;47.49;94972.13;5052812;28;20444;-84
2022/09/20 09:18:02;;;;;;;4.63;2.10;;;;;;;16.51;50.69;94962.84;5052649;28;20447;-86
2022/09/20 09:20:41;;;;;;;1.73;1.40;;;;;;;16.21;48.32;94956.34;5052911;28;20457;-85
2022/09/20 09:23:20;;;;;;;2.37;1.70;;;;;;;16.30;48.44;94962.47;5052660;28;20444;-85
2022/09/20 09:25:49;;;;;;;1.33;1.23;;;;;;;16.61;48.22;94955.56;5053079;28;20463;-84
2022/09/20 09:28:17;;;;;;;1.97;1.57;;;;;;;16.89;47.61;94953.44;5052451;28;20454;-86
2022/09/20 09:30:46;;;;;;;1.50;1.40;;;;;;;16.92;46.95;94942.50;5052495;28;20975;-85
2022/09/20 09:33:22;;;;;;;1.90;1.60;;;;;;;17.02;48.58;94947.59;5052457;28;20443;-84
2022/09/20 09:35:57;;;;;;;1.70;1.60;;;;;;;17.14;47.20;94934.84;5058048;28;20883;-85
2022/09/20 09:38:26;;;;;;;1.87;1.77;;;;;;;16.94;45.52;94945.81;5059407;28;20441;-85
2022/09/20 09:40:55;;;;;;;1.60;1.50;;;;;;;17.21;47.08;94941.13;5058980;28;20776;-84
2022/09/20 09:43:26;;;;;;;1.70;1.60;;;;;;;17.48;47.58;94947.84;5058988;28;20453;-84
2022/09/20 09:45:54;;;;;;;1.60;1.50;;;;;;;17.58;46.76;94943.16;5058943;28;20443;-85
2022/09/20 09:48:24;;;;;;;1.67;1.57;;;;;;;17.34;46.82;94926.31;5058794;28;20496;-85
2022/09/20 09:51:09;;;;;;;1.80;1.70;;;;;;;17.49;47.70;94938.88;5058864;28;20488;-84
2022/09/20 09:53:37;;;;;;;3.30;2.03;;;;;;;17.60;47.53;94944.63;5058852;28;20484;-84
2022/09/20 09:56:16;;;;;;;1.53;1.43;;;;;;;17.79;46.38;94946.09;5059367;28;20448;-85
2022/09/20 09:58:58;;;;;;;1.70;1.60;;;;;;;17.70;48.07;94931.22;5056789;28;20513;-85
2022/09/20 10:01:38;;;;;;;2.40;2.20;;;;;;;17.55;47.78;94935.53;5058690;28;20437;-84
2022/09/20 10:04:16;;;;;;;1.83;1.70;;;;;;;17.21;46.34;94920.72;5058613;28;20867;-85
2022/09/20 10:06:54;;;;;;;1.80;1.70;;;;;;;17.16;47.12;94930.19;5058826;28;20447;-84
2022/09/20 10:09:36;;;;;;;1.77;1.57;;;;;;;17.16;46.57;94914.28;5025357;28;20510;-84
2022/09/20 10:12:24;;;;;;;1.77;1.67;;;;;;;17.27;46.96;94919.22;5058496;28;20871;-85
2022/09/20 10:15:07;;;;;;;2.00;1.80;;;;;;;17.45;46.61;94929.63;5058947;28;20468;-85
2022/09/20 10:17:49;;;;;;;2.33;1.93;;;;;;;17.34;46.09;94921.00;5058465;28;20445;-84
2022/09/20 10:20:30;;;;;;;4.27;1.90;;;;;;;17.15;47.39;94923.25;5058507;28;20867;-85
2022/09/20 10:23:09;;;;;;;1.90;1.80;;;;;;;16.86;47.90;94927.25;5058391;28;20448;-84
2022/09/20 10:25:42;;;;;;;1.60;1.50;;;;;;;16.67;48.99;94931.06;5058649;28;20954;-85
2022/09/20 10:28:24;;;;;;;5.50;1.73;;;;;;;16.79;47.06;94925.47;5059196;28;20496;-85
2022/09/20 10:31:00;;;;;;;1.40;1.30;;;;;;;16.83;46.55;94914.34;5058461;28;20486;-82
2022/09/20 10:33:34;;;;;;;1.43;1.33;;;;;;;16.77;46.52;94911.50;5056570;28;20536;-83
2022/09/20 10:36:15;;;;;;;2.03;1.83;;;;;;;16.84;46.78;94912.53;5058673;28;20990;-84
2022/09/20 10:38:50;;;;;;;1.50;1.40;;;;;;;16.99;47.79;94916.13;5058337;28;20888;-83
2022/09/20 10:44:36;;;;;;;7.40;1.80;;;;;;;17.39;46.86;94906.44;5058647;28;20435;-84
2022/09/20 10:47:12;;;;;;;1.90;1.80;;;;;;;17.28;46.41;94913.75;5054842;28;20960;-84
2022/09/20 10:49:42;;;;;;;1.40;1.23;;;;;;;17.17;46.92;94918.59;5055690;28;20450;-84
2022/09/20 10:52:23;;;;;;;2.30;1.60;;;;;;;16.81;45.79;94916.34;5055422;28;20827;-84
2022/09/20 10:55:03;;;;;;;1.40;1.30;;;;;;;16.86;46.24;94921.97;5055299;28;20432;-82
2022/09/20 10:57:50;;;;;;;1.90;1.80;;;;;;;16.96;46.38;94896.09;5055340;28;20478;-83
2022/09/20 11:00:23;;;;;;;1.43;1.33;;;;;;;17.15;45.85;94910.81;5054703;28;20488;-84
2022/09/20 11:03:05;;;;;;;2.80;1.90;;;;;;;17.20;45.73;94903.16;5054931;28;20456;-83
2022/09/20 11:05:50;;;;;;;1.97;1.87;;;;;;;17.28;45.02;94911.09;5055069;28;20563;-84
2022/09/20 11:08:21;;;;;;;2.10;1.90;;;;;;;17.43;45.48;94907.75;5054581;28;20450;-83
2022/09/20 11:10:54;;;;;;;2.00;1.90;;;;;;;17.54;44.79;94896.75;5055052;28;20885;-82
2022/09/20 11:13:27;;;;;;;1.80;1.70;;;;;;;17.61;45.09;94905.66;5055201;28;20455;-84
2022/09/20 11:16:01;;;;;;;2.10;1.90;;;;;;;17.67;44.18;94905.03;5054776;28;20944;-83
2022/09/20 11:18:34;;;;;;;1.70;1.60;;;;;;;17.59;45.57;94902.34;5055045;28;20442;-84
2022/09/20 11:21:08;;;;;;;2.80;2.10;;;;;;;17.52;44.50;94893.44;5054642;28;20972;-84
2022/09/20 11:23:46;;;;;;;2.30;2.10;;;;;;;17.40;44.39;94906.25;5055013;28;20549;-84
2022/09/20 11:26:21;;;;;;;2.40;2.20;;;;;;;17.44;44.95;94893.47;5054948;28;20515;-84
2022/09/20 11:28:50;;;;;;;3.10;2.80;;;;;;;17.41;45.28;94896.47;5054438;28;20480;-84
2022/09/20 11:31:22;;;;;;;2.23;2.13;;;;;;;17.12;43.79;94889.94;4987226;28;20486;-84
2022/09/20 11:33:56;;;;;;;2.37;2.27;;;;;;;17.15;44.81;94892.25;5054517;28;20458;-83
2022/09/20 11:36:28;;;;;;;2.87;2.60;;;;;;;17.20;44.21;94902.34;5036089;28;20986;-84
2022/09/20 11:39:02;;;;;;;2.23;2.00;;;;;;;17.11;44.30;94893.59;5054410;28;20955;-83
2022/09/20 11:41:31;;;;;;;2.80;2.10;;;;;;;17.06;43.48;94895.94;5054511;28;20448;-83
2022/09/20 11:44:06;;;;;;;2.23;2.13;;;;;;;17.13;44.58;94896.06;5054364;28;20452;-83
2022/09/20 11:46:39;;;;;;;2.10;2.00;;;;;;;17.18;44.87;94886.59;5054883;28;20456;-83
2022/09/20 11:49:14;;;;;;;2.30;2.20;;;;;;;17.18;43.62;94880.47;5051958;28;20442;-82
2022/09/20 11:52:11;;;;;;;2.53;2.33;;;;;;;17.17;43.99;94887.59;5053800;28;20520;-83
2022/09/20 11:55:10;;;;;;;1.90;1.80;;;;;;;17.03;44.74;94882.97;5024748;28;20958;-84
2022/09/20 11:57:39;;;;;;;2.03;1.93;;;;;;;17.07;44.86;94875.53;5011901;28;20494;-84
2022/09/20 12:00:08;;;;;;;2.33;2.13;;;;;;;17.07;44.91;94876.38;5012065;28;20525;-84
2022/09/20 12:02:41;;;;;;;2.20;2.00;;;;;;;17.00;47.10;94862.94;4963990;28;20455;-84
2022/09/20 12:05:25;;;;;;;2.17;1.70;;;;;;;17.12;46.18;94874.03;5012011;28;20445;-83
2022/09/20 12:07:54;;;;;;;2.10;1.90;;;;;;;17.11;45.41;94874.19;5012025;28;20459;-84
2022/09/20 12:10:25;;;;;;;2.10;1.97;;;;;;;17.15;46.06;94863.06;5011814;28;20486;-82
2022/09/20 12:12:59;;;;;;;2.17;1.97;;;;;;;17.20;44.99;94866.03;5011694;28;20509;-84
2022/09/20 12:15:29;;;;;;;2.43;2.23;;;;;;;17.22;44.53;94857.91;5011692;28;20989;-85
2022/09/20 12:18:27;;;;;;;2.67;2.47;;;;;;;17.18;44.47;94852.13;5011702;28;20447;-83
2022/09/20 12:21:11;;;;;;;1.80;1.70;;;;;;;17.14;43.87;94861.44;5011436;28;20514;-82
2022/09/20 12:24:10;;;;;;;2.20;1.77;;;;;;;17.14;44.13;94856.13;5011666;28;20838;-83
2022/09/20 12:26:43;;;;;;;1.90;1.80;;;;;;;17.16;43.58;94859.44;5011612;28;20556;-84
2022/09/20 12:29:53;;;;;;;2.60;2.40;;;;;;;17.17;44.71;94853.13;5011514;28;20487;-84
2022/09/20 12:32:56;;;;;;;2.00;1.90;;;;;;;17.27;43.10;94850.25;4933704;29;20497;-83
2022/09/20 12:36:13;;;;;;;2.07;1.93;;;;;;;17.32;46.07;94850.56;4984917;28;20937;-83